sensor_id;sensor_type;location;lat;lon;timestamp;temperature;humidity
21627;DHT22;10975;47.872;12.972;2024-01-27T00:01:04;4.60;99.90
21627;DHT22;10975;47.872;12.972;2024-01-27T00:03:31;4.60;99.90
21627;DHT22;10975;47.872;12.972;2024-01-27T00:06:00;4.60;99.90
21627;DHT22;10975;47.872;12.972;2024-01-27T00:08:32;4.60;99.90
21627;DHT22;10975;47.872;12.972;2024-01-27T00:10:59;4.60;99.90
21627;DHT22;10975;47.872;12.972;2024-01-27T00:13:26;4.60;99.90
21627;DHT22;10975;47.872;12.972;2024-01-27T00:15:52;4.60;99.90
21627;DHT22;10975;47.872;12.972;2024-01-27T00:18:21;4.70;99.90
21627;DHT22;10975;47.872;12.972;2024-01-27T00:20:48;4.70;99.90
21627;DHT22;10975;47.872;12.972;2024-01-27T00:23:15;4.70;99.90
21627;DHT22;10975;47.872;12.972;2024-01-27T00:25:42;4.70;99.90
21627;DHT22;10975;47.872;12.972;2024-01-27T00:28:09;4.70;99.90
21627;DHT22;10975;47.872;12.972;2024-01-27T00:30:36;4.70;99.90
21627;DHT22;10975;47.872;12.972;2024-01-27T00:33:03;4.70;99.90
21627;DHT22;10975;47.872;12.972;2024-01-27T00:35:30;4.70;99.90
21627;DHT22;10975;47.872;12.972;2024-01-27T00:37:57;4.70;99.90
21627;DHT22;10975;47.872;12.972;2024-01-27T00:40:24;4.70;99.90
21627;DHT22;10975;47.872;12.972;2024-01-27T00:42:52;4.60;99.90
21627;DHT22;10975;47.872;12.972;2024-01-27T00:45:19;4.60;99.90
21627;DHT22;10975;47.872;12.972;2024-01-27T00:47:46;4.50;99.90
21627;DHT22;10975;47.872;12.972;2024-01-27T00:50:13;4.50;99.90
21627;DHT22;10975;47.872;12.972;2024-01-27T00:52:40;4.40;99.90
21627;DHT22;10975;47.872;12.972;2024-01-27T00:55:07;4.40;99.90
21627;DHT22;10975;47.872;12.972;2024-01-27T00:57:36;4.40;99.90
21627;DHT22;10975;47.872;12.972;2024-01-27T01:00:05;4.40;99.90
21627;DHT22;10975;47.872;12.972;2024-01-27T01:02:34;4.40;99.90
21627;DHT22;10975;47.872;12.972;2024-01-27T01:05:01;4.40;99.90
21627;DHT22;10975;47.872;12.972;2024-01-27T01:07:30;4.40;99.90
21627;DHT22;10975;47.872;12.972;2024-01-27T01:09:58;4.50;99.90
21627;DHT22;10975;47.872;12.972;2024-01-27T01:12:24;4.40;99.90
21627;DHT22;10975;47.872;12.972;2024-01-27T01:14:52;4.40;99.90
21627;DHT22;10975;47.872;12.972;2024-01-27T01:17:19;4.40;99.90
21627;DHT22;10975;47.872;12.972;2024-01-27T01:19:46;4.40;99.90
21627;DHT22;10975;47.872;12.972;2024-01-27T01:22:13;4.50;99.90
21627;DHT22;10975;47.872;12.972;2024-01-27T01:24:40;4.50;99.90
21627;DHT22;10975;47.872;12.972;2024-01-27T01:27:06;4.50;99.90
21627;DHT22;10975;47.872;12.972;2024-01-27T01:29:33;4.50;99.90
21627;DHT22;10975;47.872;12.972;2024-01-27T01:32:00;4.50;99.90
21627;DHT22;10975;47.872;12.972;2024-01-27T01:34:29;4.50;99.90
21627;DHT22;10975;47.872;12.972;2024-01-27T01:36:56;4.50;99.90
21627;DHT22;10975;47.872;12.972;2024-01-27T01:39:24;4.50;99.90
21627;DHT22;10975;47.872;12.972;2024-01-27T01:41:50;4.40;99.90
21627;DHT22;10975;47.872;12.972;2024-01-27T01:44:17;4.30;99.90
21627;DHT22;10975;47.872;12.972;2024-01-27T01:46:45;4.30;99.90
21627;DHT22;10975;47.872;12.972;2024-01-27T01:49:11;4.20;99.90
21627;DHT22;10975;47.872;12.972;2024-01-27T01:51:39;4.30;99.90
21627;DHT22;10975;47.872;12.972;2024-01-27T01:54:06;4.30;99.90
21627;DHT22;10975;47.872;12.972;2024-01-27T01:56:34;4.30;99.90
21627;DHT22;10975;47.872;12.972;2024-01-27T01:59:00;4.30;99.90
21627;DHT22;10975;47.872;12.972;2024-01-27T02:01:27;4.30;99.90
21627;DHT22;10975;47.872;12.972;2024-01-27T02:03:54;4.30;99.90
21627;DHT22;10975;47.872;12.972;2024-01-27T02:06:21;4.30;99.90
21627;DHT22;10975;47.872;12.972;2024-01-27T02:08:48;4.30;99.90
21627;DHT22;10975;47.872;12.972;2024-01-27T02:11:16;4.30;99.90
21627;DHT22;10975;47.872;12.972;2024-01-27T02:13:43;4.30;99.90
21627;DHT22;10975;47.872;12.972;2024-01-27T02:16:10;4.30;99.90
21627;DHT22;10975;47.872;12.972;2024-01-27T02:18:37;4.20;99.90
21627;DHT22;10975;47.872;12.972;2024-01-27T02:21:04;4.20;99.90
21627;DHT22;10975;47.872;12.972;2024-01-27T02:23:31;4.20;99.90
21627;DHT22;10975;47.872;12.972;2024-01-27T02:25:57;4.20;99.90
21627;DHT22;10975;47.872;12.972;2024-01-27T02:28:24;4.20;99.90
21627;DHT22;10975;47.872;12.972;2024-01-27T02:30:51;4.20;99.90
21627;DHT22;10975;47.872;12.972;2024-01-27T02:33:18;4.10;99.90
21627;DHT22;10975;47.872;12.972;2024-01-27T02:35:45;4.10;99.90
21627;DHT22;10975;47.872;12.972;2024-01-27T02:38:12;4.20;99.90
21627;DHT22;10975;47.872;12.972;2024-01-27T02:40:39;4.20;99.90
21627;DHT22;10975;47.872;12.972;2024-01-27T02:43:05;4.20;99.90
21627;DHT22;10975;47.872;12.972;2024-01-27T02:45:32;4.30;99.90
21627;DHT22;10975;47.872;12.972;2024-01-27T02:47:59;4.30;99.90
21627;DHT22;10975;47.872;12.972;2024-01-27T02:50:26;4.30;99.90
21627;DHT22;10975;47.872;12.972;2024-01-27T02:52:53;4.20;99.90
21627;DHT22;10975;47.872;12.972;2024-01-27T02:55:20;4.10;99.90
21627;DHT22;10975;47.872;12.972;2024-01-27T02:57:47;4.00;99.90
21627;DHT22;10975;47.872;12.972;2024-01-27T03:00:14;4.00;99.90
21627;DHT22;10975;47.872;12.972;2024-01-27T03:02:41;4.00;99.90
21627;DHT22;10975;47.872;12.972;2024-01-27T03:05:08;4.00;99.90
21627;DHT22;10975;47.872;12.972;2024-01-27T03:07:35;4.00;99.90
21627;DHT22;10975;47.872;12.972;2024-01-27T03:10:02;4.00;99.90
21627;DHT22;10975;47.872;12.972;2024-01-27T03:12:28;4.10;99.90
21627;DHT22;10975;47.872;12.972;2024-01-27T03:14:55;4.00;99.90
21627;DHT22;10975;47.872;12.972;2024-01-27T03:17:22;3.90;99.90
21627;DHT22;10975;47.872;12.972;2024-01-27T03:19:49;3.90;99.90
21627;DHT22;10975;47.872;12.972;2024-01-27T03:22:16;3.90;99.90
21627;DHT22;10975;47.872;12.972;2024-01-27T03:24:43;3.90;99.90
21627;DHT22;10975;47.872;12.972;2024-01-27T03:27:09;4.00;99.90
21627;DHT22;10975;47.872;12.972;2024-01-27T03:29:37;4.10;99.90
21627;DHT22;10975;47.872;12.972;2024-01-27T03:32:04;4.20;99.90
21627;DHT22;10975;47.872;12.972;2024-01-27T03:34:31;4.20;99.90
21627;DHT22;10975;47.872;12.972;2024-01-27T03:36:58;4.20;99.90
21627;DHT22;10975;47.872;12.972;2024-01-27T03:39:24;4.30;99.90
21627;DHT22;10975;47.872;12.972;2024-01-27T03:41:51;4.30;99.90
21627;DHT22;10975;47.872;12.972;2024-01-27T03:44:18;4.30;99.90
21627;DHT22;10975;47.872;12.972;2024-01-27T03:46:45;4.30;99.90
21627;DHT22;10975;47.872;12.972;2024-01-27T03:49:12;4.40;99.90
21627;DHT22;10975;47.872;12.972;2024-01-27T03:51:39;4.40;99.90
21627;DHT22;10975;47.872;12.972;2024-01-27T03:54:06;4.40;99.90
21627;DHT22;10975;47.872;12.972;2024-01-27T03:56:33;4.50;99.90
21627;DHT22;10975;47.872;12.972;2024-01-27T03:58:59;4.50;99.90
21627;DHT22;10975;47.872;12.972;2024-01-27T04:01:26;4.50;99.90
21627;DHT22;10975;47.872;12.972;2024-01-27T04:03:53;4.60;99.90
21627;DHT22;10975;47.872;12.972;2024-01-27T04:06:20;4.70;99.90
21627;DHT22;10975;47.872;12.972;2024-01-27T04:08:47;4.60;99.90
21627;DHT22;10975;47.872;12.972;2024-01-27T04:11:23;4.60;99.90
21627;DHT22;10975;47.872;12.972;2024-01-27T04:13:51;4.70;99.90
21627;DHT22;10975;47.872;12.972;2024-01-27T04:16:17;4.70;99.90
21627;DHT22;10975;47.872;12.972;2024-01-27T04:18:45;4.70;99.90
21627;DHT22;10975;47.872;12.972;2024-01-27T04:21:12;4.80;99.90
21627;DHT22;10975;47.872;12.972;2024-01-27T04:23:39;4.80;99.90
21627;DHT22;10975;47.872;12.972;2024-01-27T04:26:06;4.80;99.90
21627;DHT22;10975;47.872;12.972;2024-01-27T04:28:33;4.80;99.90
21627;DHT22;10975;47.872;12.972;2024-01-27T04:31:00;4.70;99.90
21627;DHT22;10975;47.872;12.972;2024-01-27T04:33:27;4.70;99.90
21627;DHT22;10975;47.872;12.972;2024-01-27T04:35:54;4.70;99.90
21627;DHT22;10975;47.872;12.972;2024-01-27T04:38:21;4.70;99.90
21627;DHT22;10975;47.872;12.972;2024-01-27T04:40:48;4.60;99.90
21627;DHT22;10975;47.872;12.972;2024-01-27T04:43:16;4.60;99.90
21627;DHT22;10975;47.872;12.972;2024-01-27T04:45:43;4.60;99.90
21627;DHT22;10975;47.872;12.972;2024-01-27T04:48:10;4.60;99.90
21627;DHT22;10975;47.872;12.972;2024-01-27T04:50:37;4.60;99.90
21627;DHT22;10975;47.872;12.972;2024-01-27T04:53:04;4.60;99.90
21627;DHT22;10975;47.872;12.972;2024-01-27T04:55:31;4.60;99.90
21627;DHT22;10975;47.872;12.972;2024-01-27T04:57:58;4.60;99.90
21627;DHT22;10975;47.872;12.972;2024-01-27T05:00:25;4.60;99.90
21627;DHT22;10975;47.872;12.972;2024-01-27T05:02:54;4.60;99.90
21627;DHT22;10975;47.872;12.972;2024-01-27T05:05:22;4.60;99.90
21627;DHT22;10975;47.872;12.972;2024-01-27T05:07:49;4.60;99.90
21627;DHT22;10975;47.872;12.972;2024-01-27T05:10:15;4.70;99.90
21627;DHT22;10975;47.872;12.972;2024-01-27T05:12:43;4.70;99.90
21627;DHT22;10975;47.872;12.972;2024-01-27T05:15:10;4.80;99.90
21627;DHT22;10975;47.872;12.972;2024-01-27T05:17:37;4.80;99.90
21627;DHT22;10975;47.872;12.972;2024-01-27T05:20:05;4.80;99.90
21627;DHT22;10975;47.872;12.972;2024-01-27T05:22:32;4.70;99.90
21627;DHT22;10975;47.872;12.972;2024-01-27T05:24:59;4.70;99.90
21627;DHT22;10975;47.872;12.972;2024-01-27T05:27:25;4.70;99.90
21627;DHT22;10975;47.872;12.972;2024-01-27T05:29:52;4.60;99.90
21627;DHT22;10975;47.872;12.972;2024-01-27T05:32:19;4.70;99.90
21627;DHT22;10975;47.872;12.972;2024-01-27T05:34:46;4.70;99.90
21627;DHT22;10975;47.872;12.972;2024-01-27T05:37:13;4.70;99.90
21627;DHT22;10975;47.872;12.972;2024-01-27T05:39:40;4.70;99.90
21627;DHT22;10975;47.872;12.972;2024-01-27T05:42:07;4.70;99.90
21627;DHT22;10975;47.872;12.972;2024-01-27T05:44:33;4.70;99.90
21627;DHT22;10975;47.872;12.972;2024-01-27T05:47:00;4.70;99.90
21627;DHT22;10975;47.872;12.972;2024-01-27T05:49:27;4.70;99.90
21627;DHT22;10975;47.872;12.972;2024-01-27T05:51:54;4.70;99.90
21627;DHT22;10975;47.872;12.972;2024-01-27T05:54:21;4.70;99.90
21627;DHT22;10975;47.872;12.972;2024-01-27T05:56:48;4.60;99.90
21627;DHT22;10975;47.872;12.972;2024-01-27T05:59:14;4.60;99.90
21627;DHT22;10975;47.872;12.972;2024-01-27T06:01:41;4.60;99.90
21627;DHT22;10975;47.872;12.972;2024-01-27T06:04:10;4.50;99.90
21627;DHT22;10975;47.872;12.972;2024-01-27T06:06:39;4.50;99.90
21627;DHT22;10975;47.872;12.972;2024-01-27T06:09:07;4.50;99.90
21627;DHT22;10975;47.872;12.972;2024-01-27T06:11:37;4.50;99.90
21627;DHT22;10975;47.872;12.972;2024-01-27T06:14:05;4.50;99.90
21627;DHT22;10975;47.872;12.972;2024-01-27T06:16:33;4.50;99.90
21627;DHT22;10975;47.872;12.972;2024-01-27T06:19:01;4.40;99.90
21627;DHT22;10975;47.872;12.972;2024-01-27T06:21:28;4.40;99.90
21627;DHT22;10975;47.872;12.972;2024-01-27T06:23:55;4.40;99.90
21627;DHT22;10975;47.872;12.972;2024-01-27T06:26:22;4.30;99.90
21627;DHT22;10975;47.872;12.972;2024-01-27T06:28:49;4.30;99.90
21627;DHT22;10975;47.872;12.972;2024-01-27T06:31:16;4.30;99.90
21627;DHT22;10975;47.872;12.972;2024-01-27T06:33:42;4.30;99.90
21627;DHT22;10975;47.872;12.972;2024-01-27T06:36:10;4.30;99.90
21627;DHT22;10975;47.872;12.972;2024-01-27T06:38:37;4.30;99.90
21627;DHT22;10975;47.872;12.972;2024-01-27T06:41:05;4.30;99.90
21627;DHT22;10975;47.872;12.972;2024-01-27T06:43:31;4.30;99.90
21627;DHT22;10975;47.872;12.972;2024-01-27T06:45:58;4.30;99.90
21627;DHT22;10975;47.872;12.972;2024-01-27T06:48:25;4.30;99.90
21627;DHT22;10975;47.872;12.972;2024-01-27T06:50:53;4.30;99.90
21627;DHT22;10975;47.872;12.972;2024-01-27T06:53:20;4.30;99.90
21627;DHT22;10975;47.872;12.972;2024-01-27T06:55:47;4.20;99.90
21627;DHT22;10975;47.872;12.972;2024-01-27T06:58:14;4.30;99.90
21627;DHT22;10975;47.872;12.972;2024-01-27T07:00:41;4.30;99.90
21627;DHT22;10975;47.872;12.972;2024-01-27T07:03:08;4.30;99.90
21627;DHT22;10975;47.872;12.972;2024-01-27T07:05:39;4.30;99.90
21627;DHT22;10975;47.872;12.972;2024-01-27T07:08:07;4.20;99.90
21627;DHT22;10975;47.872;12.972;2024-01-27T07:10:35;4.10;99.90
21627;DHT22;10975;47.872;12.972;2024-01-27T07:13:02;4.10;99.90
21627;DHT22;10975;47.872;12.972;2024-01-27T07:15:29;4.20;99.90
21627;DHT22;10975;47.872;12.972;2024-01-27T07:17:56;4.20;99.90
21627;DHT22;10975;47.872;12.972;2024-01-27T07:20:23;4.20;99.90
21627;DHT22;10975;47.872;12.972;2024-01-27T07:22:51;4.10;99.90
21627;DHT22;10975;47.872;12.972;2024-01-27T07:25:18;4.10;99.90
21627;DHT22;10975;47.872;12.972;2024-01-27T07:27:44;4.00;99.90
21627;DHT22;10975;47.872;12.972;2024-01-27T07:30:14;4.00;99.90
21627;DHT22;10975;47.872;12.972;2024-01-27T07:32:42;4.00;99.90
21627;DHT22;10975;47.872;12.972;2024-01-27T07:35:10;3.90;99.90
21627;DHT22;10975;47.872;12.972;2024-01-27T07:37:37;3.90;99.90
21627;DHT22;10975;47.872;12.972;2024-01-27T07:40:05;3.90;99.90
21627;DHT22;10975;47.872;12.972;2024-01-27T07:42:32;3.90;99.90
21627;DHT22;10975;47.872;12.972;2024-01-27T07:44:59;3.90;99.90
21627;DHT22;10975;47.872;12.972;2024-01-27T07:47:26;3.90;99.90
21627;DHT22;10975;47.872;12.972;2024-01-27T07:49:53;3.90;99.90
21627;DHT22;10975;47.872;12.972;2024-01-27T07:52:20;3.90;99.90
21627;DHT22;10975;47.872;12.972;2024-01-27T07:54:47;3.90;99.90
21627;DHT22;10975;47.872;12.972;2024-01-27T07:57:14;3.90;99.90
21627;DHT22;10975;47.872;12.972;2024-01-27T07:59:41;3.90;99.90
21627;DHT22;10975;47.872;12.972;2024-01-27T08:02:08;3.80;99.90
21627;DHT22;10975;47.872;12.972;2024-01-27T08:04:34;3.90;99.90
21627;DHT22;10975;47.872;12.972;2024-01-27T08:07:01;3.90;99.90
21627;DHT22;10975;47.872;12.972;2024-01-27T08:09:33;3.90;99.90
21627;DHT22;10975;47.872;12.972;2024-01-27T08:12:00;3.90;99.90
21627;DHT22;10975;47.872;12.972;2024-01-27T08:14:28;4.00;99.90
21627;DHT22;10975;47.872;12.972;2024-01-27T08:16:59;4.00;99.90
21627;DHT22;10975;47.872;12.972;2024-01-27T08:19:26;4.00;99.90
21627;DHT22;10975;47.872;12.972;2024-01-27T08:21:53;4.00;99.90
21627;DHT22;10975;47.872;12.972;2024-01-27T08:24:20;4.00;99.90
21627;DHT22;10975;47.872;12.972;2024-01-27T08:26:47;4.00;99.90
21627;DHT22;10975;47.872;12.972;2024-01-27T08:29:15;4.10;99.90
21627;DHT22;10975;47.872;12.972;2024-01-27T08:31:41;4.10;99.90
21627;DHT22;10975;47.872;12.972;2024-01-27T08:34:08;4.10;99.90
21627;DHT22;10975;47.872;12.972;2024-01-27T08:36:35;4.10;99.90
21627;DHT22;10975;47.872;12.972;2024-01-27T08:39:03;4.10;99.90
21627;DHT22;10975;47.872;12.972;2024-01-27T08:41:34;4.20;99.90
21627;DHT22;10975;47.872;12.972;2024-01-27T08:44:01;4.20;99.90
21627;DHT22;10975;47.872;12.972;2024-01-27T08:46:27;4.20;99.90
21627;DHT22;10975;47.872;12.972;2024-01-27T08:48:54;4.20;99.90
21627;DHT22;10975;47.872;12.972;2024-01-27T08:51:21;4.40;99.90
21627;DHT22;10975;47.872;12.972;2024-01-27T08:53:48;4.40;99.90
21627;DHT22;10975;47.872;12.972;2024-01-27T08:56:16;4.50;99.90
21627;DHT22;10975;47.872;12.972;2024-01-27T08:58:44;4.70;99.90
21627;DHT22;10975;47.872;12.972;2024-01-27T09:01:12;4.80;99.90
21627;DHT22;10975;47.872;12.972;2024-01-27T09:03:42;4.80;99.90
21627;DHT22;10975;47.872;12.972;2024-01-27T09:06:09;4.90;99.90
21627;DHT22;10975;47.872;12.972;2024-01-27T09:08:36;4.90;99.90
21627;DHT22;10975;47.872;12.972;2024-01-27T09:11:03;4.90;99.90
21627;DHT22;10975;47.872;12.972;2024-01-27T09:13:30;5.00;99.90
21627;DHT22;10975;47.872;12.972;2024-01-27T09:15:57;5.10;99.90
21627;DHT22;10975;47.872;12.972;2024-01-27T09:18:26;5.20;99.90
21627;DHT22;10975;47.872;12.972;2024-01-27T09:20:54;5.30;99.90
21627;DHT22;10975;47.872;12.972;2024-01-27T09:23:21;5.30;99.90
21627;DHT22;10975;47.872;12.972;2024-01-27T09:25:48;5.50;99.90
21627;DHT22;10975;47.872;12.972;2024-01-27T09:28:15;5.40;99.90
21627;DHT22;10975;47.872;12.972;2024-01-27T09:30:43;5.30;99.90
21627;DHT22;10975;47.872;12.972;2024-01-27T09:33:10;5.40;99.90
21627;DHT22;10975;47.872;12.972;2024-01-27T09:35:37;5.40;99.90
21627;DHT22;10975;47.872;12.972;2024-01-27T09:38:05;5.50;99.90
21627;DHT22;10975;47.872;12.972;2024-01-27T09:40:36;5.50;99.90
21627;DHT22;10975;47.872;12.972;2024-01-27T09:43:02;5.40;99.90
21627;DHT22;10975;47.872;12.972;2024-01-27T09:45:30;5.50;99.90
21627;DHT22;10975;47.872;12.972;2024-01-27T09:48:00;5.40;99.90
21627;DHT22;10975;47.872;12.972;2024-01-27T09:50:28;5.40;99.90
21627;DHT22;10975;47.872;12.972;2024-01-27T09:52:54;5.50;99.90
21627;DHT22;10975;47.872;12.972;2024-01-27T09:55:21;5.40;99.90
21627;DHT22;10975;47.872;12.972;2024-01-27T09:57:48;5.40;99.90
21627;DHT22;10975;47.872;12.972;2024-01-27T10:00:16;5.50;99.90
21627;DHT22;10975;47.872;12.972;2024-01-27T10:02:46;5.40;99.90
21627;DHT22;10975;47.872;12.972;2024-01-27T10:05:13;5.40;99.90
21627;DHT22;10975;47.872;12.972;2024-01-27T10:07:41;5.50;99.90
21627;DHT22;10975;47.872;12.972;2024-01-27T10:10:09;5.40;99.90
21627;DHT22;10975;47.872;12.972;2024-01-27T10:12:40;5.40;99.90
21627;DHT22;10975;47.872;12.972;2024-01-27T10:15:21;5.60;99.90
21627;DHT22;10975;47.872;12.972;2024-01-27T10:17:49;5.50;99.90
21627;DHT22;10975;47.872;12.972;2024-01-27T10:20:16;5.60;99.90
21627;DHT22;10975;47.872;12.972;2024-01-27T10:22:45;5.50;99.90
21627;DHT22;10975;47.872;12.972;2024-01-27T10:25:12;5.50;99.90
21627;DHT22;10975;47.872;12.972;2024-01-27T10:27:39;5.70;99.90
21627;DHT22;10975;47.872;12.972;2024-01-27T10:30:15;5.70;99.90
21627;DHT22;10975;47.872;12.972;2024-01-27T10:32:43;5.60;99.90
21627;DHT22;10975;47.872;12.972;2024-01-27T10:35:10;5.80;99.90
21627;DHT22;10975;47.872;12.972;2024-01-27T10:37:37;5.80;99.90
21627;DHT22;10975;47.872;12.972;2024-01-27T10:40:06;5.90;99.90
21627;DHT22;10975;47.872;12.972;2024-01-27T10:42:37;5.80;99.90
21627;DHT22;10975;47.872;12.972;2024-01-27T10:45:04;5.80;99.90
21627;DHT22;10975;47.872;12.972;2024-01-27T10:47:33;5.80;99.90
21627;DHT22;10975;47.872;12.972;2024-01-27T10:50:00;5.90;99.90
21627;DHT22;10975;47.872;12.972;2024-01-27T10:52:32;6.00;99.90
21627;DHT22;10975;47.872;12.972;2024-01-27T10:55:00;6.00;99.90
21627;DHT22;10975;47.872;12.972;2024-01-27T10:57:30;6.10;99.90
21627;DHT22;10975;47.872;12.972;2024-01-27T11:00:01;5.90;99.90
21627;DHT22;10975;47.872;12.972;2024-01-27T11:02:33;6.00;99.90
21627;DHT22;10975;47.872;12.972;2024-01-27T11:05:02;6.00;99.90
21627;DHT22;10975;47.872;12.972;2024-01-27T11:07:33;6.10;99.90
21627;DHT22;10975;47.872;12.972;2024-01-27T11:10:01;6.00;99.90
21627;DHT22;10975;47.872;12.972;2024-01-27T11:12:28;6.20;99.90
21627;DHT22;10975;47.872;12.972;2024-01-27T11:14:56;6.20;99.90
21627;DHT22;10975;47.872;12.972;2024-01-27T11:17:26;6.20;99.90
21627;DHT22;10975;47.872;12.972;2024-01-27T11:19:56;6.20;99.90
21627;DHT22;10975;47.872;12.972;2024-01-27T11:22:32;6.30;99.90
21627;DHT22;10975;47.872;12.972;2024-01-27T11:25:48;6.40;99.90
21627;DHT22;10975;47.872;12.972;2024-01-27T11:28:35;6.40;99.90
21627;DHT22;10975;47.872;12.972;2024-01-27T11:31:24;6.30;99.90
21627;DHT22;10975;47.872;12.972;2024-01-27T11:33:54;6.40;99.90
21627;DHT22;10975;47.872;12.972;2024-01-27T11:36:23;6.50;99.90
21627;DHT22;10975;47.872;12.972;2024-01-27T11:38:52;6.60;99.90
21627;DHT22;10975;47.872;12.972;2024-01-27T11:41:26;6.60;99.90
21627;DHT22;10975;47.872;12.972;2024-01-27T11:43:55;6.60;99.90
21627;DHT22;10975;47.872;12.972;2024-01-27T11:46:22;6.70;99.90
21627;DHT22;10975;47.872;12.972;2024-01-27T11:48:49;6.60;99.90
21627;DHT22;10975;47.872;12.972;2024-01-27T11:51:17;6.70;99.90
21627;DHT22;10975;47.872;12.972;2024-01-27T11:53:45;6.80;99.90
21627;DHT22;10975;47.872;12.972;2024-01-27T11:56:13;6.80;99.90
21627;DHT22;10975;47.872;12.972;2024-01-27T11:58:46;6.80;99.90
21627;DHT22;10975;47.872;12.972;2024-01-27T12:01:15;6.70;99.90
21627;DHT22;10975;47.872;12.972;2024-01-27T12:03:42;6.80;99.90
21627;DHT22;10975;47.872;12.972;2024-01-27T12:06:11;6.90;99.90
21627;DHT22;10975;47.872;12.972;2024-01-27T12:08:43;6.90;99.90
21627;DHT22;10975;47.872;12.972;2024-01-27T12:11:16;6.80;99.90
21627;DHT22;10975;47.872;12.972;2024-01-27T12:13:49;6.80;99.90
21627;DHT22;10975;47.872;12.972;2024-01-27T12:16:16;6.90;99.90
21627;DHT22;10975;47.872;12.972;2024-01-27T12:18:45;6.90;99.90
21627;DHT22;10975;47.872;12.972;2024-01-27T12:21:27;6.90;99.90
21627;DHT22;10975;47.872;12.972;2024-01-27T12:23:58;6.80;99.90
21627;DHT22;10975;47.872;12.972;2024-01-27T12:26:29;6.80;99.90
21627;DHT22;10975;47.872;12.972;2024-01-27T12:28:57;6.70;99.90
21627;DHT22;10975;47.872;12.972;2024-01-27T12:31:25;6.80;99.90
21627;DHT22;10975;47.872;12.972;2024-01-27T12:33:56;6.90;99.90
21627;DHT22;10975;47.872;12.972;2024-01-27T12:36:32;6.80;99.90
21627;DHT22;10975;47.872;12.972;2024-01-27T12:49:35;7.00;99.90
21627;DHT22;10975;47.872;12.972;2024-01-27T12:52:03;7.00;99.90
21627;DHT22;10975;47.872;12.972;2024-01-27T12:54:37;7.10;99.90
21627;DHT22;10975;47.872;12.972;2024-01-27T12:57:04;7.00;99.90
21627;DHT22;10975;47.872;12.972;2024-01-27T12:59:38;7.00;99.90
21627;DHT22;10975;47.872;12.972;2024-01-27T13:02:26;7.10;99.90
21627;DHT22;10975;47.872;12.972;2024-01-27T13:04:59;7.10;99.90
21627;DHT22;10975;47.872;12.972;2024-01-27T13:15:26;7.10;99.90
21627;DHT22;10975;47.872;12.972;2024-01-27T13:17:52;7.10;99.90
21627;DHT22;10975;47.872;12.972;2024-01-27T13:20:20;7.00;99.90
21627;DHT22;10975;47.872;12.972;2024-01-27T13:22:49;7.00;99.90
21627;DHT22;10975;47.872;12.972;2024-01-27T13:25:24;6.90;99.90
21627;DHT22;10975;47.872;12.972;2024-01-27T13:31:56;7.00;99.90
21627;DHT22;10975;47.872;12.972;2024-01-27T13:34:28;7.10;99.90
21627;DHT22;10975;47.872;12.972;2024-01-27T13:37:00;7.10;99.90
21627;DHT22;10975;47.872;12.972;2024-01-27T13:39:32;7.00;99.90
21627;DHT22;10975;47.872;12.972;2024-01-27T13:41:59;7.00;99.90
21627;DHT22;10975;47.872;12.972;2024-01-27T13:44:26;7.00;99.90
21627;DHT22;10975;47.872;12.972;2024-01-27T13:47:05;7.00;99.90
21627;DHT22;10975;47.872;12.972;2024-01-27T13:49:39;7.00;99.90
21627;DHT22;10975;47.872;12.972;2024-01-27T13:55:43;6.90;99.90
21627;DHT22;10975;47.872;12.972;2024-01-27T14:16:24;6.60;99.90
21627;DHT22;10975;47.872;12.972;2024-01-27T14:18:51;6.60;99.90
21627;DHT22;10975;47.872;12.972;2024-01-27T14:21:18;6.70;99.90
21627;DHT22;10975;47.872;12.972;2024-01-27T14:23:45;6.70;99.90
21627;DHT22;10975;47.872;12.972;2024-01-27T14:26:12;6.60;99.90
21627;DHT22;10975;47.872;12.972;2024-01-27T14:28:42;6.60;99.90
21627;DHT22;10975;47.872;12.972;2024-01-27T14:31:09;6.60;99.90
21627;DHT22;10975;47.872;12.972;2024-01-27T14:33:39;6.70;99.90
21627;DHT22;10975;47.872;12.972;2024-01-27T14:36:12;6.70;99.90
21627;DHT22;10975;47.872;12.972;2024-01-27T14:38:39;6.70;99.90
21627;DHT22;10975;47.872;12.972;2024-01-27T14:41:09;6.60;99.90
21627;DHT22;10975;47.872;12.972;2024-01-27T14:43:39;6.50;99.90
21627;DHT22;10975;47.872;12.972;2024-01-27T14:46:06;6.50;99.90
21627;DHT22;10975;47.872;12.972;2024-01-27T14:48:33;6.60;99.90
21627;DHT22;10975;47.872;12.972;2024-01-27T14:51:01;6.40;99.90
21627;DHT22;10975;47.872;12.972;2024-01-27T14:53:31;6.40;99.90
21627;DHT22;10975;47.872;12.972;2024-01-27T14:55:58;6.30;99.90
21627;DHT22;10975;47.872;12.972;2024-01-27T14:58:24;6.30;99.90
21627;DHT22;10975;47.872;12.972;2024-01-27T15:00:51;6.30;99.90
21627;DHT22;10975;47.872;12.972;2024-01-27T15:03:22;6.20;99.90
21627;DHT22;10975;47.872;12.972;2024-01-27T15:05:53;6.10;99.90
21627;DHT22;10975;47.872;12.972;2024-01-27T15:08:21;6.10;99.90
21627;DHT22;10975;47.872;12.972;2024-01-27T15:10:48;6.00;99.90
21627;DHT22;10975;47.872;12.972;2024-01-27T15:13:15;6.00;99.90
21627;DHT22;10975;47.872;12.972;2024-01-27T15:15:47;5.90;99.90
21627;DHT22;10975;47.872;12.972;2024-01-27T15:18:13;5.90;99.90
21627;DHT22;10975;47.872;12.972;2024-01-27T15:20:42;5.80;99.90
21627;DHT22;10975;47.872;12.972;2024-01-27T15:23:11;5.70;99.90
21627;DHT22;10975;47.872;12.972;2024-01-27T15:25:38;5.60;99.90
21627;DHT22;10975;47.872;12.972;2024-01-27T15:28:05;5.60;99.90
21627;DHT22;10975;47.872;12.972;2024-01-27T15:30:32;5.50;99.90
21627;DHT22;10975;47.872;12.972;2024-01-27T15:32:59;5.50;99.90
21627;DHT22;10975;47.872;12.972;2024-01-27T15:35:26;5.40;99.90
21627;DHT22;10975;47.872;12.972;2024-01-27T15:37:56;5.30;99.90
21627;DHT22;10975;47.872;12.972;2024-01-27T15:40:23;5.20;99.90
21627;DHT22;10975;47.872;12.972;2024-01-27T15:42:52;5.10;99.90
21627;DHT22;10975;47.872;12.972;2024-01-27T15:45:19;5.10;99.90
21627;DHT22;10975;47.872;12.972;2024-01-27T15:47:46;5.10;99.90
21627;DHT22;10975;47.872;12.972;2024-01-27T15:50:13;4.90;99.90
21627;DHT22;10975;47.872;12.972;2024-01-27T15:52:43;4.90;99.90
21627;DHT22;10975;47.872;12.972;2024-01-27T15:55:10;4.80;99.90
21627;DHT22;10975;47.872;12.972;2024-01-27T15:57:36;4.70;99.90
21627;DHT22;10975;47.872;12.972;2024-01-27T16:00:05;4.60;99.90
21627;DHT22;10975;47.872;12.972;2024-01-27T16:02:37;4.50;99.90
21627;DHT22;10975;47.872;12.972;2024-01-27T16:05:07;4.30;99.90
21627;DHT22;10975;47.872;12.972;2024-01-27T16:07:39;4.20;99.90
21627;DHT22;10975;47.872;12.972;2024-01-27T16:10:06;4.10;99.90
21627;DHT22;10975;47.872;12.972;2024-01-27T16:12:33;4.00;99.90
21627;DHT22;10975;47.872;12.972;2024-01-27T16:15:13;3.90;99.90
21627;DHT22;10975;47.872;12.972;2024-01-27T16:17:50;3.80;99.90
21627;DHT22;10975;47.872;12.972;2024-01-27T16:20:28;3.70;99.90